Time;durP1;ratioP1;P1;durP2;ratioP2;P2;SDS_P1;SDS_P2;PMS_P1;PMS_P2;Temp;Humidity;BMP_temperature;BMP_pressure;BME280_temperature;BME280_humidity;BME280_pressure;Samples;Min_cycle;Max_cycle;Signal;HPM_P1;HPM_P2
2021/03/24 00:01:22;;;;;;;;;;;23.30;99.90;;;;;;4956145;29;19922;-88
2021/03/24 00:03:50;;;;;;;;;;;23.40;99.90;;;;;;4942634;29;19914;-90
2021/03/24 00:06:19;;;;;;;;;;;23.20;99.90;;;;;;4962009;28;19910;-86
2021/03/24 00:08:46;;;;;;;;;;;23.30;99.90;;;;;;4960202;28;19918;-85
2021/03/24 00:11:15;;;;;;;;;;;23.30;99.90;;;;;;4941987;28;20328;-87
2021/03/24 00:13:42;;;;;;;;;;;23.40;99.90;;;;;;4974429;28;19981;-92
2021/03/24 00:16:10;;;;;;;;;;;23.50;99.90;;;;;;4961198;28;19914;-87
2021/03/24 00:18:37;;;;;;;;;;;23.60;99.90;;;;;;4976869;28;19918;-90
2021/03/24 00:21:07;;;;;;;;;;;23.80;99.90;;;;;;4957471;28;19918;-90
2021/03/24 00:23:34;;;;;;;;;;;23.90;99.90;;;;;;4956619;28;19911;-83
2021/03/24 00:26:01;;;;;;;;;;;23.90;99.90;;;;;;4960039;28;19914;-84
2021/03/24 00:28:28;;;;;;;;;;;24.00;99.90;;;;;;4977714;28;19950;-92
2021/03/24 00:30:55;;;;;;;;;;;24.00;99.90;;;;;;4977472;28;19914;-86
2021/03/24 00:33:26;;;;;;;;;;;24.00;99.90;;;;;;4976435;28;20272;-87
2021/03/24 00:35:53;;;;;;;;;;;24.00;99.90;;;;;;4975507;28;20044;-85
2021/03/24 00:38:22;;;;;;;;;;;24.10;99.90;;;;;;4974461;28;19976;-86
2021/03/24 00:40:51;;;;;;;;;;;24.30;99.90;;;;;;4972250;28;19910;-87
2021/03/24 00:43:17;;;;;;;;;;;24.30;99.90;;;;;;4951913;28;19915;-87
2021/03/24 00:45:44;;;;;;;;;;;24.40;99.90;;;;;;4955917;28;19973;-86
2021/03/24 00:48:22;;;;;;;;;;;24.30;99.90;;;;;;4952578;29;20710;-87
2021/03/24 00:50:48;;;;;;;;;;;24.30;99.90;;;;;;4955831;28;19914;-88
2021/03/24 00:53:16;;;;;;;;;;;24.60;99.90;;;;;;4956337;28;20023;-87
2021/03/24 00:55:43;;;;;;;;;;;24.70;99.90;;;;;;4958481;28;20013;-87
2021/03/24 00:58:09;;;;;;;;;;;24.70;99.90;;;;;;4955313;28;19974;-86
2021/03/24 01:00:37;;;;;;;;;;;24.70;99.90;;;;;;4945149;29;19926;-88
2021/03/24 01:03:04;;;;;;;;;;;24.80;99.90;;;;;;4926849;29;19929;-87
2021/03/24 01:05:31;;;;;;;;;;;24.90;99.90;;;;;;4937391;29;19954;-90
2021/03/24 01:08:03;;;;;;;;;;;24.80;99.90;;;;;;4933620;29;19922;-90
2021/03/24 01:10:31;;;;;;;;;;;24.80;99.90;;;;;;4937297;29;19939;-89
2021/03/24 01:12:58;;;;;;;;;;;24.90;99.90;;;;;;4932011;29;19918;-89
2021/03/24 01:15:25;;;;;;;;;;;24.70;99.90;;;;;;4936999;29;19971;-90
2021/03/24 01:17:53;;;;;;;;;;;24.80;99.90;;;;;;4936955;29;19919;-91
2021/03/24 01:20:21;;;;;;;;;;;25.00;99.90;;;;;;4936808;29;19915;-89
2021/03/24 01:22:50;;;;;;;;;;;25.60;99.90;;;;;;4931916;29;19943;-87
2021/03/24 01:25:17;;;;;;;;;;;25.90;99.90;;;;;;4937485;29;19919;-90
2021/03/24 01:27:44;;;;;;;;;;;25.80;99.90;;;;;;4938318;29;19938;-90
2021/03/24 01:30:11;;;;;;;;;;;25.90;99.90;;;;;;4937620;29;19915;-88
2021/03/24 01:32:38;;;;;;;;;;;26.20;99.90;;;;;;4938562;29;20258;-88
2021/03/24 01:35:06;;;;;;;;;;;26.10;99.50;;;;;;4939295;29;19911;-87
2021/03/24 01:37:33;;;;;;;;;;;26.10;99.10;;;;;;4939288;29;19952;-87
2021/03/24 01:39:59;;;;;;;;;;;25.90;99.50;;;;;;4933569;29;19919;-88
2021/03/24 01:42:26;;;;;;;;;;;25.60;99.30;;;;;;4939517;29;19939;-89
2021/03/24 01:44:59;;;;;;;;;;;25.40;99.90;;;;;;4957991;29;19990;-89
2021/03/24 01:47:26;;;;;;;;;;;25.30;99.90;;;;;;4932080;29;19974;-88
2021/03/24 01:49:53;;;;;;;;;;;25.30;99.90;;;;;;4927420;29;20282;-84
2021/03/24 01:52:24;;;;;;;;;;;25.50;99.50;;;;;;4947448;29;19922;-93
2021/03/24 01:54:51;;;;;;;;;;;25.70;99.90;;;;;;4950460;29;20385;-87
2021/03/24 01:57:27;;;;;;;;;;;25.90;97.80;;;;;;4930659;29;19919;-88
2021/03/24 01:59:55;;;;;;;;;;;25.90;98.70;;;;;;4937494;29;19926;-87
2021/03/24 02:02:34;;;;;;;;;;;25.80;99.20;;;;;;4948644;29;19918;-87
2021/03/24 02:05:01;;;;;;;;;;;25.80;98.00;;;;;;4945383;29;19986;-89
2021/03/24 02:07:27;;;;;;;;;;;25.70;97.80;;;;;;4954661;28;19933;-88
2021/03/24 02:10:32;;;;;;;;;;;25.80;98.80;;;;;;4954697;28;19925;-86
2021/03/24 02:13:02;;;;;;;;;;;25.80;96.90;;;;;;4894969;29;19916;-87
2021/03/24 02:15:42;;;;;;;;;;;25.80;98.90;;;;;;4943347;28;19918;-89
2021/03/24 02:18:13;;;;;;;;;;;25.90;97.40;;;;;;4943201;29;19921;-93
2021/03/24 02:27:05;;;;;;;;;;;26.10;96.30;;;;;;4955461;29;20028;-94
2021/03/24 02:29:53;;;;;;;;;;;26.10;96.40;;;;;;4960111;28;19921;-88
2021/03/24 02:32:34;;;;;;;;;;;25.90;97.70;;;;;;4949949;29;19915;-90
2021/03/24 02:35:03;;;;;;;;;;;25.70;97.90;;;;;;4952470;29;19911;-88
2021/03/24 02:37:33;;;;;;;;;;;25.50;96.80;;;;;;4945914;29;19914;-89
2021/03/24 02:40:01;;;;;;;;;;;25.50;97.40;;;;;;4948316;29;19922;-88
2021/03/24 02:42:28;;;;;;;;;;;25.50;97.60;;;;;;4951630;29;19910;-90
2021/03/24 02:44:55;;;;;;;;;;;25.60;96.60;;;;;;4952098;28;19965;-87
2021/03/24 02:47:22;;;;;;;;;;;25.70;97.10;;;;;;4950588;29;19931;-89
2021/03/24 02:53:58;;;;;;;;;;;;;;;;;;;;;
2021/03/24 02:56:31;;;;;;;;;;;25.70;98.80;;;;;;4913675;29;19953;-87
2021/03/24 02:59:01;;;;;;;;;;;25.80;96.90;;;;;;4969152;29;19968;-88
2021/03/24 03:01:51;;;;;;;;;;;25.80;96.50;;;;;;4998104;28;19977;-87
2021/03/24 03:04:42;;;;;;;;;;;25.90;95.50;;;;;;5001307;28;19998;-89
2021/03/24 03:07:16;;;;;;;;;;;25.90;96.00;;;;;;4966046;28;19926;-89
2021/03/24 03:09:48;;;;;;;;;;;25.70;95.30;;;;;;4963332;28;20359;-91
2021/03/24 03:12:20;;;;;;;;;;;25.90;94.70;;;;;;4966998;28;19910;-90
2021/03/24 03:14:54;;;;;;;;;;;25.80;94.10;;;;;;4965315;28;19910;-89
2021/03/24 03:17:34;;;;;;;;;;;25.80;94.50;;;;;;4957502;28;19917;-89
2021/03/24 03:20:10;;;;;;;;;;;25.80;93.70;;;;;;4957182;28;19910;-90
2021/03/24 03:22:42;;;;;;;;;;;25.80;94.20;;;;;;4961920;28;19917;-91
2021/03/24 03:25:12;;;;;;;;;;;25.90;93.80;;;;;;4961087;28;19925;-90
2021/03/24 03:27:39;;;;;;;;;;;26.10;94.20;;;;;;4959620;28;20324;-88
2021/03/24 03:30:07;;;;;;;;;;;26.10;94.20;;;;;;4961417;29;19985;-89
2021/03/24 03:32:34;;;;;;;;;;;26.10;93.30;;;;;;4961762;29;20435;-89
2021/03/24 03:35:05;;;;;;;;;;;26.30;91.50;;;;;;4960784;29;20384;-91
2021/03/24 03:37:32;;;;;;;;;;;26.30;93.80;;;;;;4962287;28;20080;-90
2021/03/24 03:40:00;;;;;;;;;;;26.50;92.20;;;;;;4961134;28;19953;-91
2021/03/24 03:42:27;;;;;;;;;;;26.30;93.10;;;;;;4959925;28;19929;-91
2021/03/24 03:44:56;;;;;;;;;;;26.10;93.30;;;;;;4959453;29;20269;-92
2021/03/24 03:47:24;;;;;;;;;;;25.90;93.20;;;;;;4958608;29;19973;-90
2021/03/24 03:49:51;;;;;;;;;;;26.10;92.60;;;;;;4961073;28;19997;-91
2021/03/24 03:52:24;;;;;;;;;;;26.40;92.50;;;;;;4962403;28;19910;-90
2021/03/24 03:54:51;;;;;;;;;;;26.40;92.20;;;;;;4961783;28;19914;-90
2021/03/24 03:57:28;;;;;;;;;;;26.40;92.80;;;;;;4959974;28;20000;-89
2021/03/24 04:00:07;;;;;;;;;;;26.50;92.00;;;;;;4961294;28;19929;-90
2021/03/24 04:03:02;;;;;;;;;;;26.50;90.10;;;;;;4965545;28;19940;-91
2021/03/24 04:05:49;;;;;;;;;;;26.50;92.50;;;;;;4947076;28;20360;-90
2021/03/24 04:08:21;;;;;;;;;;;26.50;88.80;;;;;;4954722;28;19922;-90
2021/03/24 04:10:52;;;;;;;;;;;26.50;90.30;;;;;;4961316;29;19910;-90
2021/03/24 04:13:20;;;;;;;;;;;26.50;87.20;;;;;;4961509;28;20025;-86
2021/03/24 04:15:50;;;;;;;;;;;26.50;86.20;;;;;;4971211;28;19910;-89
2021/03/24 04:18:29;;;;;;;;;;;26.50;87.20;;;;;;4964803;28;19911;-93
2021/03/24 04:20:57;;;;;;;;;;;26.50;86.40;;;;;;4967976;28;19978;-91
2021/03/24 04:23:26;;;;;;;;;;;26.30;89.00;;;;;;4962906;29;19918;-92
2021/03/24 04:26:07;;;;;;;;;;;26.20;90.40;;;;;;4978887;28;19914;-92
2021/03/24 04:28:35;;;;;;;;;;;26.10;91.80;;;;;;4992687;28;19922;-92
2021/03/24 04:31:06;;;;;;;;;;;26.20;90.50;;;;;;4946434;28;19933;-91
2021/03/24 04:33:33;;;;;;;;;;;26.10;89.20;;;;;;4955734;29;20246;-92
2021/03/24 04:36:06;;;;;;;;;;;26.00;93.00;;;;;;4956938;28;20019;-92
2021/03/24 04:38:42;;;;;;;;;;;26.00;91.20;;;;;;4959587;28;19930;-92
2021/03/24 04:41:11;;;;;;;;;;;26.10;90.10;;;;;;4957245;29;19914;-91
2021/03/24 04:43:40;;;;;;;;;;;26.30;89.60;;;;;;4960553;28;19968;-90
2021/03/24 04:46:27;;;;;;;;;;;26.40;87.90;;;;;;4960626;28;20377;-90
2021/03/24 04:48:56;;;;;;;;;;;26.60;88.80;;;;;;4958067;28;19930;-91
2021/03/24 04:51:25;;;;;;;;;;;26.60;88.70;;;;;;4960243;28;19981;-90
2021/03/24 04:53:56;;;;;;;;;;;26.40;89.10;;;;;;4959210;28;19910;-91
2021/03/24 04:56:30;;;;;;;;;;;26.50;88.60;;;;;;4960191;28;19922;-91
2021/03/24 04:59:04;;;;;;;;;;;26.40;88.00;;;;;;4979292;28;19911;-92
2021/03/24 05:01:39;;;;;;;;;;;26.30;90.20;;;;;;4955012;28;20002;-90
2021/03/24 05:04:21;;;;;;;;;;;26.20;91.40;;;;;;4959713;28;19914;-91
2021/03/24 05:07:07;;;;;;;;;;;26.40;90.80;;;;;;4956537;28;19969;-91
2021/03/24 05:09:38;;;;;;;;;;;26.30;90.70;;;;;;4953837;28;19914;-90
2021/03/24 05:12:13;;;;;;;;;;;26.00;91.90;;;;;;4959385;28;19915;-92
2021/03/24 05:14:45;;;;;;;;;;;26.00;90.10;;;;;;4954182;29;19962;-91
2021/03/24 05:17:20;;;;;;;;;;;26.00;90.90;;;;;;4963248;28;20016;-91
2021/03/24 05:19:52;;;;;;;;;;;25.90;90.20;;;;;;4981025;28;19915;-93
2021/03/24 05:22:19;;;;;;;;;;;25.90;89.90;;;;;;4963610;28;19996;-92
2021/03/24 05:24:47;;;;;;;;;;;26.10;87.70;;;;;;4963654;28;19910;-91
2021/03/24 05:27:16;;;;;;;;;;;26.40;86.00;;;;;;4963403;28;20501;-91
2021/03/24 05:29:45;;;;;;;;;;;26.60;83.30;;;;;;4961278;28;19914;-91
2021/03/24 05:32:18;;;;;;;;;;;26.40;84.50;;;;;;4958688;29;19910;-92
2021/03/24 05:34:47;;;;;;;;;;;26.30;88.80;;;;;;4961454;28;19921;-91
2021/03/24 05:37:14;;;;;;;;;;;26.20;87.60;;;;;;4958098;29;20013;-91
2021/03/24 05:39:42;;;;;;;;;;;26.20;85.60;;;;;;4958012;29;19915;-92
2021/03/24 05:42:08;;;;;;;;;;;26.20;85.50;;;;;;4961277;28;19914;-92
2021/03/24 05:44:41;;;;;;;;;;;26.40;83.80;;;;;;4961444;28;19910;-92
2021/03/24 05:47:26;;;;;;;;;;;26.40;83.80;;;;;;4960476;28;20013;-91
2021/03/24 05:50:02;;;;;;;;;;;26.40;82.70;;;;;;4961951;28;19918;-91
2021/03/24 05:52:45;;;;;;;;;;;26.40;82.40;;;;;;4961370;28;19910;-91
2021/03/24 05:55:26;;;;;;;;;;;26.30;84.30;;;;;;4960906;28;20008;-91
2021/03/24 05:58:14;;;;;;;;;;;26.10;85.40;;;;;;4962305;28;20032;-91
2021/03/24 06:00:48;;;;;;;;;;;26.10;84.10;;;;;;4964257;28;19918;-91
2021/03/24 06:03:14;;;;;;;;;;;25.90;87.80;;;;;;4960770;28;19942;-91
2021/03/24 06:05:59;;;;;;;;;;;25.90;85.50;;;;;;4960145;28;19946;-90
2021/03/24 06:08:59;;;;;;;;;;;25.80;88.60;;;;;;4959282;28;19997;-91
2021/03/24 06:11:45;;;;;;;;;;;25.70;86.90;;;;;;4959575;28;20013;-90
2021/03/24 06:14:12;;;;;;;;;;;25.70;86.50;;;;;;4958659;28;20280;-89
2021/03/24 06:17:14;;;;;;;;;;;25.60;87.60;;;;;;4959055;28;19924;-88
2021/03/24 06:20:08;;;;;;;;;;;25.50;87.10;;;;;;4961690;28;19915;-87
2021/03/24 06:22:55;;;;;;;;;;;25.40;88.00;;;;;;4971113;28;19941;-90
2021/03/24 06:25:40;;;;;;;;;;;25.60;87.20;;;;;;4958126;28;19922;-87
2021/03/24 06:28:19;;;;;;;;;;;25.40;90.90;;;;;;4961876;28;19922;-89
2021/03/24 06:31:06;;;;;;;;;;;25.30;90.60;;;;;;4983338;28;20020;-91
2021/03/24 06:33:51;;;;;;;;;;;25.20;91.20;;;;;;4959242;28;19938;-88
2021/03/24 06:36:34;;;;;;;;;;;25.10;91.50;;;;;;4960908;28;19918;-90
2021/03/24 06:39:19;;;;;;;;;;;25.10;91.40;;;;;;4960691;28;19960;-90
2021/03/24 06:42:10;;;;;;;;;;;25.00;92.10;;;;;;4957901;28;19929;-92
2021/03/24 06:44:55;;;;;;;;;;;25.00;91.90;;;;;;4961356;29;19942;-91
2021/03/24 06:47:40;;;;;;;;;;;25.10;92.60;;;;;;4962659;28;19922;-89
2021/03/24 06:50:19;;;;;;;;;;;25.10;92.20;;;;;;4969317;28;19914;-92
2021/03/24 06:53:01;;;;;;;;;;;25.10;91.50;;;;;;4963609;28;20352;-91
2021/03/24 06:55:40;;;;;;;;;;;25.10;91.40;;;;;;4960169;28;19936;-92
2021/03/24 06:58:23;;;;;;;;;;;25.00;92.40;;;;;;4957405;28;19980;-85
2021/03/24 07:01:08;;;;;;;;;;;25.00;91.70;;;;;;4949361;29;20393;-84
2021/03/24 07:03:56;;;;;;;;;;;25.20;89.90;;;;;;4950516;29;19922;-92
2021/03/24 07:06:33;;;;;;;;;;;25.30;91.90;;;;;;4942339;29;19953;-86
2021/03/24 07:09:07;;;;;;;;;;;25.10;90.90;;;;;;4956069;29;20022;-83
2021/03/24 07:11:40;;;;;;;;;;;25.00;93.10;;;;;;4946709;29;19922;-86
2021/03/24 07:14:10;;;;;;;;;;;24.90;93.00;;;;;;4956891;29;19926;-87
2021/03/24 07:16:40;;;;;;;;;;;24.90;91.60;;;;;;4954061;28;20584;-86
2021/03/24 07:19:25;;;;;;;;;;;24.80;91.70;;;;;;4960889;28;19974;-94
2021/03/24 07:22:21;;;;;;;;;;;24.70;92.70;;;;;;4943410;28;19914;-87
2021/03/24 07:25:03;;;;;;;;;;;24.70;92.80;;;;;;4929865;29;20258;-84
2021/03/24 07:27:48;;;;;;;;;;;24.60;93.10;;;;;;4955546;29;19927;-90
2021/03/24 07:30:35;;;;;;;;;;;24.50;94.40;;;;;;4955132;29;19989;-89
2021/03/24 07:33:02;;;;;;;;;;;24.40;94.90;;;;;;4959794;28;19986;-87
2021/03/24 07:35:51;;;;;;;;;;;24.60;93.50;;;;;;4958108;28;19958;-90
2021/03/24 07:38:36;;;;;;;;;;;24.60;93.40;;;;;;4930326;29;19938;-85
2021/03/24 07:41:18;;;;;;;;;;;24.50;95.60;;;;;;4961202;29;19914;-91
2021/03/24 07:43:48;;;;;;;;;;;24.40;95.40;;;;;;4959072;29;19910;-90
2021/03/24 07:46:18;;;;;;;;;;;24.30;95.20;;;;;;4956672;29;19954;-89
2021/03/24 07:48:54;;;;;;;;;;;24.20;96.90;;;;;;4972433;28;19925;-91
2021/03/24 07:51:43;;;;;;;;;;;24.30;96.30;;;;;;4974711;28;19910;-91
2021/03/24 07:54:20;;;;;;;;;;;24.30;95.70;;;;;;4959098;29;19910;-92
2021/03/24 07:56:57;;;;;;;;;;;24.10;95.90;;;;;;4958618;29;20376;-91
2021/03/24 07:59:30;;;;;;;;;;;24.20;95.70;;;;;;4961314;28;19921;-90
2021/03/24 08:02:12;;;;;;;;;;;24.00;95.80;;;;;;4957324;29;20376;-93
2021/03/24 08:04:39;;;;;;;;;;;23.90;97.60;;;;;;4958293;29;19969;-92
2021/03/24 08:07:06;;;;;;;;;;;23.90;98.30;;;;;;4955140;29;19954;-93
2021/03/24 08:09:51;;;;;;;;;;;23.90;98.20;;;;;;4941065;29;20512;-90
2021/03/24 08:12:18;;;;;;;;;;;24.00;96.90;;;;;;4941206;29;19938;-91
2021/03/24 08:15:03;;;;;;;;;;;24.00;96.40;;;;;;4957746;28;20355;-92
2021/03/24 08:17:52;;;;;;;;;;;23.90;97.00;;;;;;4956466;29;20280;-91
2021/03/24 08:20:22;;;;;;;;;;;23.90;97.80;;;;;;4924896;29;19977;-92
2021/03/24 08:23:04;;;;;;;;;;;23.90;97.70;;;;;;4956127;29;20305;-92
2021/03/24 08:25:31;;;;;;;;;;;23.80;97.70;;;;;;4956367;29;19966;-91
2021/03/24 08:28:10;;;;;;;;;;;23.70;99.30;;;;;;4955811;28;20376;-92
2021/03/24 08:30:43;;;;;;;;;;;23.70;98.80;;;;;;4956004;29;19911;-91
2021/03/24 08:33:22;;;;;;;;;;;23.80;98.00;;;;;;4956361;29;20029;-92
2021/03/24 08:35:52;;;;;;;;;;;23.70;98.70;;;;;;4958391;29;19915;-92
2021/03/24 08:38:22;;;;;;;;;;;23.60;98.70;;;;;;4962939;29;20001;-92
2021/03/24 08:40:52;;;;;;;;;;;23.60;98.40;;;;;;4961938;29;19945;-92
2021/03/24 08:43:27;;;;;;;;;;;23.50;99.40;;;;;;4960682;29;19935;-91
2021/03/24 08:45:59;;;;;;;;;;;23.50;99.70;;;;;;4952294;29;19925;-91
2021/03/24 08:48:32;;;;;;;;;;;23.50;99.40;;;;;;4941840;29;19918;-93
2021/03/24 08:51:03;;;;;;;;;;;23.40;99.30;;;;;;4954969;29;19970;-91
2021/03/24 08:53:48;;;;;;;;;;;23.40;99.20;;;;;;4948739;29;19985;-93
2021/03/24 08:56:19;;;;;;;;;;;23.40;99.20;;;;;;4957287;29;19910;-92
2021/03/24 08:59:00;;;;;;;;;;;23.40;99.90;;;;;;4957098;29;20620;-93
2021/03/24 09:01:46;;;;;;;;;;;23.30;99.90;;;;;;4957827;29;19946;-89
2021/03/24 09:04:19;;;;;;;;;;;23.30;99.90;;;;;;4959669;29;20127;-90
2021/03/24 09:06:46;;;;;;;;;;;23.20;99.90;;;;;;4963653;29;20646;-91
2021/03/24 09:09:32;;;;;;;;;;;23.20;99.90;;;;;;4965048;29;19919;-91
2021/03/24 09:12:07;;;;;;;;;;;23.20;99.90;;;;;;4963710;29;19918;-91
2021/03/24 09:14:57;;;;;;;;;;;23.10;99.90;;;;;;4964984;29;20432;-90
2021/03/24 09:18:02;;;;;;;;;;;23.10;99.90;;;;;;4962924;29;19945;-92
2021/03/24 09:20:47;;;;;;;;;;;23.00;99.90;;;;;;4890756;29;20500;-92
2021/03/24 09:23:17;;;;;;;;;;;22.90;99.90;;;;;;4940803;29;20420;-91
2021/03/24 09:25:48;;;;;;;;;;;22.90;99.90;;;;;;4951123;29;19970;-92
2021/03/24 09:28:15;;;;;;;;;;;22.80;99.90;;;;;;4953614;29;20394;-91
2021/03/24 09:30:48;;;;;;;;;;;22.80;99.90;;;;;;4946025;29;19960;-91
2021/03/24 09:33:18;;;;;;;;;;;22.80;99.90;;;;;;4930234;29;19946;-91
2021/03/24 09:35:59;;;;;;;;;;;;;;;;;;;;;
2021/03/24 09:38:32;;;;;;;;;;;22.70;99.90;;;;;;4960362;28;20029;-90
2021/03/24 09:41:20;;;;;;;;;;;22.80;99.90;;;;;;4947790;29;19917;-92
2021/03/24 09:43:58;;;;;;;;;;;22.70;99.90;;;;;;4954933;29;19917;-92
2021/03/24 09:46:31;;;;;;;;;;;22.70;99.90;;;;;;4948138;29;19915;-90
2021/03/24 09:49:01;;;;;;;;;;;22.90;99.90;;;;;;4953988;29;20424;-90
2021/03/24 09:51:31;;;;;;;;;;;22.90;99.90;;;;;;4946533;29;20454;-90
2021/03/24 09:54:28;;;;;;;;;;;22.80;99.90;;;;;;4932957;29;19949;-90
2021/03/24 09:57:07;;;;;;;;;;;22.80;99.90;;;;;;4930454;29;19960;-90
2021/03/24 10:00:12;;;;;;;;;;;22.80;99.90;;;;;;4949783;29;19915;-92
2021/03/24 10:02:48;;;;;;;;;;;22.80;99.90;;;;;;4911305;29;19931;-89
2021/03/24 10:05:15;;;;;;;;;;;22.80;99.90;;;;;;4895821;29;19912;-82
2021/03/24 10:07:56;;;;;;;;;;;22.80;99.90;;;;;;4928941;28;19959;-82
2021/03/24 10:10:24;;;;;;;;;;;22.80;99.90;;;;;;4950429;28;19910;-84
2021/03/24 10:13:13;;;;;;;;;;;22.90;98.50;;;;;;4953566;29;19922;-83
2021/03/24 10:15:40;;;;;;;;;;;22.90;99.90;;;;;;4947916;29;19917;-83
2021/03/24 10:18:19;;;;;;;;;;;22.80;99.90;;;;;;4951959;29;20400;-89
2021/03/24 10:20:52;;;;;;;;;;;22.80;99.90;;;;;;4961988;28;20288;-84
2021/03/24 10:23:22;;;;;;;;;;;22.80;99.90;;;;;;4972697;28;19921;-84
2021/03/24 10:25:50;;;;;;;;;;;22.70;98.90;;;;;;4972407;28;20009;-84
2021/03/24 10:28:24;;;;;;;;;;;22.70;99.90;;;;;;4973668;28;19953;-84
2021/03/24 10:31:03;;;;;;;;;;;22.80;99.10;;;;;;4974067;28;19995;-83
2021/03/24 10:33:38;;;;;;;;;;;22.80;98.70;;;;;;4972421;28;20309;-83
2021/03/24 10:36:17;;;;;;;;;;;22.70;98.40;;;;;;4972120;28;19910;-83
2021/03/24 10:38:44;;;;;;;;;;;22.70;99.90;;;;;;4970624;28;19994;-84
2021/03/24 10:41:13;;;;;;;;;;;22.60;99.80;;;;;;4948958;28;20358;-82
2021/03/24 10:44:03;;;;;;;;;;;22.60;99.10;;;;;;4947354;29;19914;-82
2021/03/24 10:46:33;;;;;;;;;;;22.70;99.90;;;;;;4913705;29;20377;-83
2021/03/24 10:49:19;;;;;;;;;;;22.70;98.90;;;;;;4943673;29;19922;-83
2021/03/24 10:52:01;;;;;;;;;;;22.70;99.00;;;;;;4948533;29;20344;-83
2021/03/24 10:54:34;;;;;;;;;;;22.70;98.80;;;;;;4956423;29;19942;-83
2021/03/24 10:57:20;;;;;;;;;;;22.70;98.40;;;;;;4937372;29;19997;-83
2021/03/24 10:59:46;;;;;;;;;;;22.60;98.10;;;;;;4937651;29;19917;-82
2021/03/24 11:02:19;;;;;;;;;;;22.60;98.60;;;;;;4938943;29;19977;-83
2021/03/24 11:04:54;;;;;;;;;;;22.60;98.20;;;;;;4939889;29;20399;-83
2021/03/24 11:07:25;;;;;;;;;;;22.60;99.90;;;;;;4936694;29;20009;-83
2021/03/24 11:09:59;;;;;;;;;;;22.50;97.20;;;;;;4956067;29;19950;-83
2021/03/24 11:12:39;;;;;;;;;;;22.50;97.10;;;;;;4939023;29;19911;-83
2021/03/24 11:15:14;;;;;;;;;;;22.50;97.10;;;;;;4967070;28;19914;-84
2021/03/24 11:17:41;;;;;;;;;;;22.50;99.50;;;;;;4957491;29;19961;-84
2021/03/24 11:20:11;;;;;;;;;;;22.40;99.00;;;;;;4941522;29;19967;-85
2021/03/24 11:22:53;;;;;;;;;;;22.30;99.50;;;;;;4956544;29;19934;-90
2021/03/24 11:25:28;;;;;;;;;;;22.20;98.20;;;;;;4939927;29;19918;-87
2021/03/24 11:28:04;;;;;;;;;;;22.20;99.90;;;;;;4957482;29;20085;-87
2021/03/24 11:30:38;;;;;;;;;;;22.20;99.60;;;;;;4957336;29;19918;-86
2021/03/24 11:33:11;;;;;;;;;;;22.10;99.90;;;;;;4940626;29;20005;-88
2021/03/24 11:35:53;;;;;;;;;;;22.10;99.40;;;;;;4940781;29;19985;-86
2021/03/24 11:38:19;;;;;;;;;;;22.00;99.20;;;;;;4942279;29;20329;-86
2021/03/24 11:41:06;;;;;;;;;;;21.90;99.90;;;;;;4941329;29;19919;-86
2021/03/24 11:43:34;;;;;;;;;;;22.00;99.90;;;;;;4944511;28;20865;-86
2021/03/24 11:46:20;;;;;;;;;;;21.90;99.90;;;;;;4953035;28;19910;-85
2021/03/24 11:48:47;;;;;;;;;;;21.80;99.90;;;;;;4956680;28;20009;-85
2021/03/24 11:51:22;;;;;;;;;;;21.80;99.90;;;;;;4953742;28;19922;-86
2021/03/24 11:53:52;;;;;;;;;;;21.80;99.90;;;;;;4971357;28;19980;-84
2021/03/24 11:56:22;;;;;;;;;;;21.80;99.90;;;;;;4954746;29;20159;-85
2021/03/24 11:58:57;;;;;;;;;;;21.80;99.90;;;;;;4968892;28;19922;-85
2021/03/24 12:01:29;;;;;;;;;;;21.80;98.80;;;;;;4962657;28;19926;-84
2021/03/24 12:04:14;;;;;;;;;;;21.80;99.70;;;;;;4969910;28;19946;-85
2021/03/24 12:07:01;;;;;;;;;;;21.80;99.00;;;;;;4959296;28;20661;-84
2021/03/24 12:09:30;;;;;;;;;;;21.80;99.30;;;;;;4952255;28;19918;-86
2021/03/24 12:12:09;;;;;;;;;;;21.70;99.90;;;;;;4942629;28;19915;-85
2021/03/24 12:14:37;;;;;;;;;;;21.60;99.90;;;;;;4946932;28;19910;-86
2021/03/24 12:17:05;;;;;;;;;;;21.60;99.90;;;;;;4945395;28;20292;-84
2021/03/24 12:19:37;;;;;;;;;;;21.50;99.90;;;;;;4941802;29;19926;-86
2021/03/24 12:22:12;;;;;;;;;;;21.50;99.90;;;;;;4937580;29;19918;-86
2021/03/24 12:24:40;;;;;;;;;;;21.50;99.90;;;;;;4952399;29;19919;-85
2021/03/24 12:27:20;;;;;;;;;;;21.50;99.90;;;;;;4954591;29;19918;-84
2021/03/24 12:29:57;;;;;;;;;;;21.60;99.70;;;;;;4953199;29;19919;-84
2021/03/24 12:32:26;;;;;;;;;;;21.60;98.80;;;;;;4952755;29;19925;-84
2021/03/24 12:34:53;;;;;;;;;;;21.60;99.90;;;;;;4954658;29;20373;-84
2021/03/24 12:37:22;;;;;;;;;;;21.60;99.90;;;;;;4954604;29;20631;-85
2021/03/24 12:39:50;;;;;;;;;;;21.50;99.90;;;;;;4954976;29;19911;-84
2021/03/24 12:42:25;;;;;;;;;;;21.50;99.90;;;;;;4954385;29;19918;-83
2021/03/24 12:44:53;;;;;;;;;;;21.50;98.40;;;;;;4953885;29;19914;-85
2021/03/24 12:47:26;;;;;;;;;;;21.50;99.10;;;;;;4954515;29;20324;-84
2021/03/24 12:50:11;;;;;;;;;;;21.50;97.80;;;;;;4954852;29;20558;-84
2021/03/24 12:52:53;;;;;;;;;;;21.50;98.10;;;;;;4954263;29;19914;-84
2021/03/24 12:55:20;;;;;;;;;;;21.50;96.90;;;;;;4954466;29;19910;-84
2021/03/24 12:57:53;;;;;;;;;;;21.50;97.80;;;;;;4954719;29;19958;-84
2021/03/24 13:00:33;;;;;;;;;;;21.50;97.90;;;;;;4954652;29;20381;-84
2021/03/24 13:03:03;;;;;;;;;;;21.50;99.40;;;;;;4946949;29;19915;-84
2021/03/24 13:05:43;;;;;;;;;;;21.40;98.50;;;;;;4955009;29;19914;-84
2021/03/24 13:08:24;;;;;;;;;;;21.40;98.80;;;;;;4955024;29;19927;-85
2021/03/24 13:10:54;;;;;;;;;;;21.50;98.20;;;;;;4954516;29;20376;-84
2021/03/24 13:13:29;;;;;;;;;;;21.40;99.30;;;;;;4953166;28;19946;-84
2021/03/24 13:15:59;;;;;;;;;;;21.40;98.40;;;;;;4954317;29;20315;-84
2021/03/24 13:18:32;;;;;;;;;;;21.30;99.50;;;;;;4954594;29;20076;-84
2021/03/24 13:21:05;;;;;;;;;;;21.30;99.50;;;;;;4954656;29;19914;-84
2021/03/24 13:23:49;;;;;;;;;;;21.20;99.30;;;;;;4936897;29;19911;-84
2021/03/24 13:26:16;;;;;;;;;;;21.20;99.60;;;;;;4954495;29;19911;-84
2021/03/24 13:28:53;;;;;;;;;;;21.20;99.30;;;;;;4954386;29;19926;-84
2021/03/24 13:31:20;;;;;;;;;;;21.10;99.70;;;;;;4954885;28;19925;-84
2021/03/24 13:33:59;;;;;;;;;;;21.10;99.90;;;;;;4954509;29;19914;-84
2021/03/24 13:36:28;;;;;;;;;;;21.10;99.90;;;;;;4954716;29;19910;-84
2021/03/24 13:38:58;;;;;;;;;;;21.10;99.90;;;;;;4955159;29;19919;-84
2021/03/24 13:41:26;;;;;;;;;;;21.10;99.90;;;;;;4956069;29;19910;-84
2021/03/24 13:43:55;;;;;;;;;;;21.10;99.30;;;;;;4955950;29;19911;-83
2021/03/24 13:46:31;;;;;;;;;;;21.20;99.80;;;;;;4937823;29;19941;-84
2021/03/24 13:49:02;;;;;;;;;;;21.10;99.40;;;;;;4937557;29;20345;-84
2021/03/24 13:51:33;;;;;;;;;;;21.10;98.50;;;;;;4937947;29;20365;-84
2021/03/24 13:54:19;;;;;;;;;;;21.10;99.90;;;;;;4937974;29;20398;-84
2021/03/24 13:56:52;;;;;;;;;;;21.10;99.10;;;;;;4938171;29;19918;-84
2021/03/24 13:59:23;;;;;;;;;;;21.00;98.90;;;;;;4955465;29;19918;-83
2021/03/24 14:01:59;;;;;;;;;;;21.00;99.70;;;;;;4955158;29;19930;-84
2021/03/24 14:04:52;;;;;;;;;;;21.00;99.70;;;;;;4947558;29;19938;-84
2021/03/24 14:07:28;;;;;;;;;;;20.90;99.90;;;;;;4932339;29;19973;-83
2021/03/24 14:09:55;;;;;;;;;;;20.90;99.90;;;;;;4955106;29;19945;-82
2021/03/24 14:12:37;;;;;;;;;;;20.80;99.90;;;;;;4955671;29;20005;-84
2021/03/24 14:15:16;;;;;;;;;;;20.80;99.90;;;;;;4955613;29;19953;-84
2021/03/24 14:17:49;;;;;;;;;;;20.70;99.90;;;;;;4955920;29;20132;-83
2021/03/24 14:20:27;;;;;;;;;;;20.70;99.90;;;;;;4955772;29;19986;-83
2021/03/24 14:22:57;;;;;;;;;;;20.70;99.90;;;;;;4952354;29;19922;-83
2021/03/24 14:25:26;;;;;;;;;;;20.60;99.90;;;;;;4956226;29;19914;-84
2021/03/24 14:28:01;;;;;;;;;;;20.60;99.90;;;;;;4955317;29;19914;-83
2021/03/24 14:30:32;;;;;;;;;;;20.60;99.90;;;;;;4955061;29;19918;-82
2021/03/24 14:33:17;;;;;;;;;;;20.60;99.90;;;;;;4952605;29;20562;-83
2021/03/24 14:35:53;;;;;;;;;;;20.60;99.90;;;;;;4953236;29;19926;-83
2021/03/24 14:38:26;;;;;;;;;;;20.60;99.90;;;;;;4933244;29;20300;-84
2021/03/24 14:41:02;;;;;;;;;;;20.50;99.90;;;;;;4951158;29;19918;-83
2021/03/24 14:43:42;;;;;;;;;;;20.50;99.90;;;;;;4952516;29;20353;-83
2021/03/24 14:46:15;;;;;;;;;;;20.40;99.90;;;;;;4946113;29;19914;-84
2021/03/24 14:48:59;;;;;;;;;;;20.40;99.90;;;;;;4953259;29;19937;-84
2021/03/24 14:51:44;;;;;;;;;;;20.40;99.90;;;;;;4953801;29;19914;-84
2021/03/24 14:54:27;;;;;;;;;;;20.40;99.90;;;;;;4953071;29;19914;-84
2021/03/24 14:57:02;;;;;;;;;;;20.40;99.90;;;;;;4953129;29;20377;-84
2021/03/24 14:59:31;;;;;;;;;;;20.40;99.90;;;;;;4953019;29;19918;-83
2021/03/24 15:02:17;;;;;;;;;;;20.40;99.90;;;;;;4953541;29;19944;-83
2021/03/24 15:04:50;;;;;;;;;;;20.40;99.90;;;;;;4953209;29;19936;-84
2021/03/24 15:07:25;;;;;;;;;;;20.30;99.90;;;;;;4952047;29;19986;-84
2021/03/24 15:10:24;;;;;;;;;;;20.30;99.90;;;;;;4951607;29;19914;-84
2021/03/24 15:13:02;;;;;;;;;;;20.30;99.90;;;;;;4939427;29;19923;-84